Fair Grove, Missouri
Current Conditions -  °F | °C
As of 4:52 AM on Wednesday 26 Nov 2014 (Local Time) from KSGF Reporting Station
Overcast Overcast  
Wind Chill: -3°   Ceiling: 8500
Heat Index:   Visibility: 10mi
Dew Point: -6°   Wind: 14mph
Humidity: 59%   Direction: 160°SSE
Pressure: 29.96"   Gusts: NA
Location:  37.38°N, 93.15°W
Report Text: KSGF 261052Z 16012KT 10SM BKN085 OVC110 02/M06 A2996 RMK AO2 SLP150 T00171056
Loading
Personal Weather Stations






























Interactive Weather Map New forecast layout! Learn more

10-Day Weather Forecast

Advertisements
Track Severe Weather on mobile